Time,TemperatureF,DewpointF,PressureIn,WindDirection,WindDirectionDegrees,WindSpeedMPH,WindSpeedGustMPH,Humidity,HourlyPrecipIn,Conditions,Clouds,dailyrainin,SoftwareType,DateUTC
2013-02-22 00:02:00,15.8,10.5,29.59,East,90,4.9,7.1,80,0.00,,,0.00,WUHU216HW,2013-02-22 07:02:00,
2013-02-22 00:07:00,15.4,10.4,29.59,East,90,5.3,6.2,80,0.00,,,0.00,WUHU216HW,2013-02-22 07:07:00,
2013-02-22 00:12:00,15.0,10.0,29.59,East,90,5.8,7.8,80,0.00,,,0.00,WUHU216HW,2013-02-22 07:12:00,
2013-02-22 00:17:00,14.9,9.8,29.59,East,90,4.0,7.8,80,0.00,,,0.00,WUHU216HW,2013-02-22 07:17:00,
2013-02-22 00:22:00,14.5,9.5,29.59,East,90,1.3,5.5,80,0.00,,,0.00,WUHU216HW,2013-02-22 07:22:00,
2013-02-22 00:28:00,14.1,9.1,29.59,East,90,1.7,5.5,80,0.00,,,0.00,WUHU216HW,2013-02-22 07:28:00,
2013-02-22 00:33:00,13.8,8.7,29.59,East,90,3.5,3.5,80,0.00,,,0.00,WUHU216HW,2013-02-22 07:33:00,
2013-02-22 00:38:00,13.6,8.6,29.59,East,90,5.3,7.1,80,0.00,,,0.00,WUHU216HW,2013-02-22 07:38:00,
2013-02-22 00:43:00,13.6,8.8,29.59,East,90,6.4,7.1,81,0.00,,,0.00,WUHU216HW,2013-02-22 07:43:00,
2013-02-22 00:48:00,13.8,9.0,29.59,East,90,5.1,7.6,81,0.00,,,0.00,WUHU216HW,2013-02-22 07:48:00,
2013-02-22 00:53:00,13.8,9.3,29.59,East,90,3.8,7.6,81,0.00,,,0.00,WUHU216HW,2013-02-22 07:53:00,
2013-02-22 00:58:00,13.8,9.3,29.59,East,90,4.0,6.4,82,0.00,,,0.00,WUHU216HW,2013-02-22 07:58:00,
2013-02-22 01:03:00,13.6,9.1,29.59,East,90,4.2,4.2,82,0.00,,,0.00,WUHU216HW,2013-02-22 08:03:00,
2013-02-22 01:08:00,13.2,8.7,29.59,East,90,4.4,4.4,82,0.00,,,0.00,WUHU216HW,2013-02-22 08:08:00,
2013-02-22 01:13:00,12.9,8.4,29.59,East,90,4.2,4.9,82,0.00,,,0.00,WUHU216HW,2013-02-22 08:13:00,
2013-02-22 01:18:00,12.9,8.4,29.59,East,90,5.5,5.5,82,0.00,,,0.00,WUHU216HW,2013-02-22 08:18:00,
2013-02-22 01:24:00,12.9,8.4,29.59,East,90,3.8,6.2,82,0.00,,,0.00,WUHU216HW,2013-02-22 08:24:00,
2013-02-22 01:29:00,13.1,8.6,29.59,East,90,3.1,6.2,82,0.00,,,0.00,WUHU216HW,2013-02-22 08:29:00,
2013-02-22 01:34:00,13.2,8.7,29.59,East,90,5.3,5.3,82,0.00,,,0.00,WUHU216HW,2013-02-22 08:34:00,
2013-02-22 01:39:00,13.2,9.0,29.59,East,90,0.0,5.3,83,0.00,,,0.00,WUHU216HW,2013-02-22 08:39:00,
2013-02-22 01:44:00,13.1,8.8,29.59,East,90,6.2,6.2,83,0.00,,,0.00,WUHU216HW,2013-02-22 08:44:00,
2013-02-22 01:49:00,13.1,8.8,29.58,East,90,3.8,6.2,83,0.00,,,0.00,WUHU216HW,2013-02-22 08:49:00,
2013-02-22 01:54:00,12.9,8.6,29.58,East,90,2.4,6.4,83,0.00,,,0.00,WUHU216HW,2013-02-22 08:54:00,
2013-02-22 01:59:00,12.9,8.6,29.58,East,90,6.4,7.1,83,0.00,,,0.00,WUHU216HW,2013-02-22 08:59:00,
2013-02-22 02:04:00,12.7,8.5,29.58,East,90,7.3,7.3,83,0.00,,,0.00,WUHU216HW,2013-02-22 09:04:00,
2013-02-22 02:09:00,12.7,8.5,29.58,East,90,6.9,7.3,83,0.00,,,0.00,WUHU216HW,2013-02-22 09:09:00,
2013-02-22 02:14:00,12.5,8.3,29.58,East,90,5.8,7.6,83,0.00,,,0.00,WUHU216HW,2013-02-22 09:14:00,
2013-02-22 02:19:00,12.5,8.3,29.58,East,90,6.4,10.0,83,0.00,,,0.00,WUHU216HW,2013-02-22 09:19:00,
2013-02-22 02:24:00,12.7,8.5,29.58,East,90,6.2,10.0,83,0.00,,,0.00,WUHU216HW,2013-02-22 09:24:00,
2013-02-22 02:29:00,13.1,8.8,29.58,East,90,3.5,8.9,83,0.00,,,0.00,WUHU216HW,2013-02-22 09:29:00,
2013-02-22 02:34:00,13.2,9.0,29.58,East,90,6.4,8.9,83,0.00,,,0.00,WUHU216HW,2013-02-22 09:34:00,
2013-02-22 02:39:00,13.2,8.7,29.58,East,90,4.4,6.9,82,0.00,,,0.00,WUHU216HW,2013-02-22 09:39:00,
2013-02-22 02:44:00,13.1,8.6,29.58,East,90,2.4,6.4,82,0.00,,,0.00,WUHU216HW,2013-02-22 09:44:00,
2013-02-22 02:49:00,12.7,8.2,29.57,East,90,4.0,6.4,82,0.00,,,0.00,WUHU216HW,2013-02-22 09:49:00,
2013-02-22 02:54:00,12.5,8.0,29.57,East,90,1.7,6.4,82,0.00,,,0.00,WUHU216HW,2013-02-22 09:54:00,
2013-02-22 02:59:00,12.3,7.8,29.57,East,90,4.0,4.0,82,0.00,,,0.00,WUHU216HW,2013-02-22 09:59:00,
2013-02-22 03:05:00,12.2,7.7,29.57,East,90,5.8,5.8,82,0.00,,,0.00,WUHU216HW,2013-02-22 10:05:00,
2013-02-22 03:10:00,12.2,7.7,29.57,East,90,5.5,5.8,82,0.00,,,0.00,WUHU216HW,2013-02-22 10:10:00,
2013-02-22 03:15:00,12.3,7.8,29.57,East,90,7.1,7.1,82,0.00,,,0.00,WUHU216HW,2013-02-22 10:15:00,
2013-02-22 03:20:00,12.5,8.0,29.58,East,90,4.0,7.1,82,0.00,,,0.00,WUHU216HW,2013-02-22 10:20:00,
2013-02-22 03:25:00,12.7,8.2,29.58,East,90,6.9,6.9,82,0.00,,,0.00,WUHU216HW,2013-02-22 10:25:00,
2013-02-22 03:30:00,12.9,8.4,29.58,East,90,3.1,6.9,82,0.00,,,0.00,WUHU216HW,2013-02-22 10:30:00,
2013-02-22 03:35:00,13.1,8.6,29.58,East,90,4.9,4.9,82,0.00,,,0.00,WUHU216HW,2013-02-22 10:35:00,
2013-02-22 03:40:00,13.1,8.6,29.58,East,90,1.3,4.9,82,0.00,,,0.00,WUHU216HW,2013-02-22 10:40:00,
2013-02-22 03:45:00,13.1,8.6,29.59,East,90,3.8,4.9,82,0.00,,,0.00,WUHU216HW,2013-02-22 10:45:00,
2013-02-22 03:50:00,13.2,8.7,29.58,East,90,1.3,4.0,82,0.00,,,0.00,WUHU216HW,2013-02-22 10:50:00,
2013-02-22 03:55:00,13.2,8.7,29.58,East,90,3.8,4.0,82,0.00,,,0.00,WUHU216HW,2013-02-22 10:55:00,
2013-02-22 04:00:00,13.2,9.0,29.58,East,90,2.4,3.8,83,0.00,,,0.00,WUHU216HW,2013-02-22 11:00:00,
2013-02-22 04:05:00,13.6,9.4,29.58,East,90,0.0,3.3,83,0.00,,,0.00,WUHU216HW,2013-02-22 11:05:00,
2013-02-22 04:10:00,13.6,9.4,29.58,East,90,0.8,5.1,83,0.00,,,0.00,WUHU216HW,2013-02-22 11:10:00,
2013-02-22 04:15:00,13.8,9.5,29.59,East,90,2.6,5.1,83,0.00,,,0.00,WUHU216HW,2013-02-22 11:15:00,
2013-02-22 04:20:00,14.1,9.9,29.59,East,90,4.9,4.9,83,0.00,,,0.00,WUHU216HW,2013-02-22 11:20:00,
2013-02-22 04:25:00,14.5,10.2,29.59,East,90,5.8,6.0,83,0.00,,,0.00,WUHU216HW,2013-02-22 11:25:00,
2013-02-22 04:31:00,14.7,10.4,29.59,East,90,4.2,6.0,83,0.00,,,0.00,WUHU216HW,2013-02-22 11:31:00,
2013-02-22 04:36:00,14.9,10.6,29.59,East,90,3.5,5.8,83,0.00,,,0.00,WUHU216HW,2013-02-22 11:36:00,
2013-02-22 04:41:00,15.2,10.9,29.59,East,90,4.9,5.3,83,0.00,,,0.00,WUHU216HW,2013-02-22 11:41:00,
2013-02-22 04:46:00,15.4,11.1,29.59,East,90,4.9,6.2,83,0.00,,,0.00,WUHU216HW,2013-02-22 11:46:00,
2013-02-22 04:51:00,15.6,11.3,29.59,East,90,5.5,6.2,83,0.00,,,0.00,WUHU216HW,2013-02-22 11:51:00,
2013-02-22 04:56:00,15.6,11.3,29.59,East,90,2.6,5.5,83,0.00,,,0.00,WUHU216HW,2013-02-22 11:56:00,
2013-02-22 05:01:00,15.6,11.3,29.59,East,90,2.2,4.9,83,0.00,,,0.00,WUHU216HW,2013-02-22 12:01:00,
2013-02-22 05:06:00,15.6,11.3,29.60,East,90,3.1,3.3,83,0.00,,,0.00,WUHU216HW,2013-02-22 12:06:00,
2013-02-22 05:11:00,15.4,10.9,29.59,East,90,3.8,3.8,82,0.00,,,0.00,WUHU216HW,2013-02-22 12:11:00,
2013-02-22 05:16:00,15.0,10.5,29.60,East,90,5.3,5.3,82,0.00,,,0.00,WUHU216HW,2013-02-22 12:16:00,
2013-02-22 05:22:00,14.7,10.2,29.60,East,90,0.0,5.3,82,0.00,,,0.00,WUHU216HW,2013-02-22 12:22:00,
2013-02-22 05:27:00,14.1,9.6,29.60,East,90,0.0,2.6,82,0.00,,,0.00,WUHU216HW,2013-02-22 12:27:00,
2013-02-22 05:32:00,14.0,9.5,29.60,East,90,2.0,2.6,82,0.00,,,0.00,WUHU216HW,2013-02-22 12:32:00,
2013-02-22 05:37:00,13.6,9.1,29.60,East,90,2.2,2.6,82,0.00,,,0.00,WUHU216HW,2013-02-22 12:37:00,
2013-02-22 05:42:00,13.6,9.1,29.60,East,90,2.4,2.6,82,0.00,,,0.00,WUHU216HW,2013-02-22 12:42:00,
2013-02-22 05:47:00,13.2,8.7,29.60,East,90,3.1,3.1,82,0.00,,,0.00,WUHU216HW,2013-02-22 12:47:00,
2013-02-22 05:52:00,12.9,8.4,29.60,East,90,0.0,3.1,82,0.00,,,0.00,WUHU216HW,2013-02-22 12:52:00,
2013-02-22 05:57:00,12.7,8.2,29.60,East,90,2.9,2.9,82,0.00,,,0.00,WUHU216HW,2013-02-22 12:57:00,
2013-02-22 06:02:00,12.7,8.2,29.60,East,90,1.5,2.9,82,0.00,,,0.00,WUHU216HW,2013-02-22 13:02:00,
2013-02-22 06:07:00,12.7,8.2,29.60,East,90,3.1,4.6,82,0.00,,,0.00,WUHU216HW,2013-02-22 13:07:00,
2013-02-22 06:12:00,12.7,8.2,29.61,East,90,3.1,4.6,82,0.00,,,0.00,WUHU216HW,2013-02-22 13:12:00,
2013-02-22 06:17:00,12.7,8.5,29.60,East,90,3.3,3.8,83,0.00,,,0.00,WUHU216HW,2013-02-22 13:17:00,
2013-02-22 06:22:00,12.9,8.6,29.60,East,90,6.0,6.0,83,0.00,,,0.00,WUHU216HW,2013-02-22 13:22:00,
2013-02-22 06:27:00,12.9,8.6,29.60,East,90,3.8,6.0,83,0.00,,,0.00,WUHU216HW,2013-02-22 13:27:00,
2013-02-22 06:33:00,12.7,8.5,29.61,East,90,2.9,3.8,83,0.00,,,0.00,WUHU216HW,2013-02-22 13:33:00,
2013-02-22 06:38:00,12.5,8.3,29.61,East,90,2.0,3.3,83,0.00,,,0.00,WUHU216HW,2013-02-22 13:38:00,
2013-02-22 06:43:00,12.3,8.1,29.60,East,90,3.5,4.6,83,0.00,,,0.00,WUHU216HW,2013-02-22 13:43:00,
2013-02-22 06:48:00,12.0,7.7,29.60,East,90,3.3,5.3,83,0.00,,,0.00,WUHU216HW,2013-02-22 13:48:00,
2013-02-22 06:53:00,12.0,7.7,29.60,East,90,3.8,5.3,83,0.00,,,0.00,WUHU216HW,2013-02-22 13:53:00,
2013-02-22 06:58:00,12.0,7.7,29.60,East,90,0.0,4.0,83,0.00,,,0.00,WUHU216HW,2013-02-22 13:58:00,
2013-02-22 07:03:00,12.0,7.7,29.61,East,90,4.2,4.2,83,0.00,,,0.00,WUHU216HW,2013-02-22 14:03:00,
2013-02-22 07:08:00,12.0,8.0,29.61,East,90,2.2,4.2,84,0.00,,,0.00,WUHU216HW,2013-02-22 14:08:00,
2013-02-22 07:13:00,12.0,8.0,29.62,East,90,3.5,4.2,84,0.00,,,0.00,WUHU216HW,2013-02-22 14:13:00,
2013-02-22 07:18:00,12.3,8.4,29.61,East,90,1.7,3.5,84,0.00,,,0.00,WUHU216HW,2013-02-22 14:18:00,
2013-02-22 07:23:00,12.5,8.6,29.61,East,90,1.7,1.7,84,0.00,,,0.00,WUHU216HW,2013-02-22 14:23:00,
2013-02-22 07:28:00,12.7,8.7,29.61,East,90,2.2,2.2,84,0.00,,,0.00,WUHU216HW,2013-02-22 14:28:00,
2013-02-22 07:33:00,12.9,8.9,29.61,East,90,3.5,3.8,84,0.00,,,0.00,WUHU216HW,2013-02-22 14:33:00,
2013-02-22 07:38:00,13.2,9.3,29.61,East,90,1.1,3.8,84,0.00,,,0.00,WUHU216HW,2013-02-22 14:38:00,
2013-02-22 07:43:00,13.2,9.5,29.61,East,90,1.1,3.3,85,0.00,,,0.00,WUHU216HW,2013-02-22 14:43:00,
2013-02-22 07:48:00,13.2,9.3,29.61,East,90,2.9,2.9,84,0.00,,,0.00,WUHU216HW,2013-02-22 14:48:00,
2013-02-22 07:53:00,13.6,9.6,29.62,East,90,4.9,4.9,84,0.00,,,0.00,WUHU216HW,2013-02-22 14:53:00,
2013-02-22 07:58:00,14.1,10.4,29.61,East,90,4.6,4.9,85,0.00,,,0.00,WUHU216HW,2013-02-22 14:58:00,
2013-02-22 08:04:00,15.4,11.6,29.61,East,90,7.3,7.3,85,0.00,,,0.00,WUHU216HW,2013-02-22 15:04:00,
2013-02-22 08:09:00,16.7,13.1,29.62,East,90,7.3,7.3,86,0.00,,,0.00,WUHU216HW,2013-02-22 15:09:00,
2013-02-22 08:14:00,17.7,14.1,29.62,East,90,7.8,7.8,86,0.00,,,0.00,WUHU216HW,2013-02-22 15:14:00,
2013-02-22 08:19:00,18.3,14.7,29.62,East,90,7.1,7.8,86,0.00,,,0.00,WUHU216HW,2013-02-22 15:19:00,
2013-02-22 08:24:00,19.2,15.9,29.62,East,90,2.6,7.8,86,0.00,,,0.00,WUHU216HW,2013-02-22 15:24:00,
2013-02-22 08:29:00,20.1,16.5,29.62,East,90,6.7,6.7,86,0.00,,,0.00,WUHU216HW,2013-02-22 15:29:00,
2013-02-22 08:34:00,21.3,17.7,29.62,East,90,6.7,6.7,86,0.00,,,0.00,WUHU216HW,2013-02-22 15:34:00,
2013-02-22 08:39:00,22.1,18.2,29.62,East,90,3.5,6.7,85,0.00,,,0.00,WUHU216HW,2013-02-22 15:39:00,
2013-02-22 08:44:00,23.0,19.1,29.62,SE,135,14.5,14.5,85,0.00,,,0.00,WUHU216HW,2013-02-22 15:44:00,
2013-02-22 08:49:00,23.9,19.7,29.62,SE,135,13.8,14.5,84,0.00,,,0.00,WUHU216HW,2013-02-22 15:49:00,
2013-02-22 08:55:00,24.6,20.2,29.62,ESE,113,12.0,14.5,83,0.00,,,0.00,WUHU216HW,2013-02-22 15:55:00,
2013-02-22 09:00:00,25.1,20.4,29.62,ESE,113,8.7,14.9,82,0.00,,,0.00,WUHU216HW,2013-02-22 16:00:00,
2013-02-22 09:05:00,25.8,20.2,29.62,SE,135,13.6,14.9,79,0.00,,,0.00,WUHU216HW,2013-02-22 16:05:00,
2013-02-22 09:10:00,26.2,20.2,29.62,SE,135,12.0,17.4,78,0.00,,,0.00,WUHU216HW,2013-02-22 16:10:00,
2013-02-22 09:15:00,26.4,19.7,29.63,SE,135,14.5,17.4,76,0.00,,,0.00,WUHU216HW,2013-02-22 16:15:00,
2013-02-22 09:20:00,26.6,19.3,29.62,ESE,113,10.0,14.7,74,0.00,,,0.00,WUHU216HW,2013-02-22 16:20:00,
2013-02-22 09:25:00,26.9,19.7,29.62,SE,135,14.9,16.7,74,0.00,,,0.00,WUHU216HW,2013-02-22 16:25:00,
2013-02-22 09:30:00,27.1,19.5,29.62,SE,135,11.8,16.7,73,0.00,,,0.00,WUHU216HW,2013-02-22 16:30:00,
2013-02-22 09:35:00,27.5,19.3,29.62,SE,135,14.0,15.8,71,0.00,,,0.00,WUHU216HW,2013-02-22 16:35:00,
2013-02-22 09:40:00,27.6,19.2,29.62,SE,135,15.4,15.8,70,0.00,,,0.00,WUHU216HW,2013-02-22 16:40:00,
2013-02-22 09:45:00,28.0,18.8,29.62,SE,135,10.5,15.4,68,0.00,,,0.00,WUHU216HW,2013-02-22 16:45:00,
2013-02-22 09:50:00,28.2,18.3,29.62,ESE,113,11.8,18.1,66,0.00,,,0.00,WUHU216HW,2013-02-22 16:50:00,
2013-02-22 09:56:00,28.5,18.3,29.62,SE,135,16.7,18.1,65,0.00,,,0.00,WUHU216HW,2013-02-22 16:56:00,
2013-02-22 10:01:00,28.7,18.1,29.62,SSE,158,12.0,16.7,64,0.00,,,0.00,WUHU216HW,2013-02-22 17:01:00,
2013-02-22 10:06:00,28.9,17.9,29.62,SE,135,11.8,16.7,63,0.00,,,0.00,WUHU216HW,2013-02-22 17:06:00,
2013-02-22 10:11:00,29.3,18.2,29.62,ESE,113,13.1,16.7,63,0.00,,,0.00,WUHU216HW,2013-02-22 17:11:00,
2013-02-22 10:16:00,29.6,17.8,29.62,SSE,158,14.5,16.7,61,0.00,,,0.00,WUHU216HW,2013-02-22 17:16:00,
2013-02-22 10:21:00,29.8,17.6,29.62,SE,135,14.3,14.5,60,0.00,,,0.00,WUHU216HW,2013-02-22 17:21:00,
2013-02-22 10:26:00,30.0,16.9,29.63,SE,135,7.6,15.4,58,0.00,,,0.00,WUHU216HW,2013-02-22 17:26:00,
2013-02-22 10:31:00,30.2,16.7,29.63,ESE,113,7.6,15.4,57,0.00,,,0.00,WUHU216HW,2013-02-22 17:31:00,
2013-02-22 10:36:00,30.7,16.8,29.63,East,90,6.4,15.2,56,0.00,,,0.00,WUHU216HW,2013-02-22 17:36:00,
2013-02-22 10:41:00,30.7,16.3,29.63,SSE,158,10.9,15.2,55,0.00,,,0.00,WUHU216HW,2013-02-22 17:41:00,
2013-02-22 10:46:00,30.3,15.6,29.63,ESE,113,6.2,16.1,54,0.00,,,0.00,WUHU216HW,2013-02-22 17:46:00,
2013-02-22 10:52:00,30.7,15.9,29.63,SE,135,12.9,19.9,54,0.00,,,0.00,WUHU216HW,2013-02-22 17:52:00,
2013-02-22 10:57:00,30.7,15.1,29.63,ESE,113,14.0,19.9,52,0.00,,,0.00,WUHU216HW,2013-02-22 17:57:00,
2013-02-22 11:02:00,30.7,15.1,29.63,SE,135,17.4,19.0,52,0.00,,,0.00,WUHU216HW,2013-02-22 18:02:00,
2013-02-22 11:07:00,30.9,14.8,29.63,SE,135,6.7,17.4,51,0.00,,,0.00,WUHU216HW,2013-02-22 18:07:00,
2013-02-22 11:12:00,31.2,15.2,29.63,ESE,113,10.0,16.3,51,0.00,,,0.00,WUHU216HW,2013-02-22 18:12:00,
2013-02-22 11:17:00,31.6,15.5,29.63,SE,135,6.0,15.4,51,0.00,,,0.00,WUHU216HW,2013-02-22 18:17:00,
2013-02-22 11:22:00,32.1,15.6,29.63,SE,135,5.8,12.5,50,0.00,,,0.00,WUHU216HW,2013-02-22 18:22:00,
2013-02-22 11:27:00,32.1,15.0,29.63,SE,135,6.0,12.5,49,0.00,,,0.00,WUHU216HW,2013-02-22 18:27:00,
2013-02-22 11:33:00,32.3,14.7,29.63,SE,135,13.1,13.1,48,0.00,,,0.00,WUHU216HW,2013-02-22 18:33:00,
2013-02-22 11:38:00,32.7,15.0,29.63,SE,135,11.8,13.1,48,0.00,,,0.00,WUHU216HW,2013-02-22 18:38:00,
2013-02-22 11:43:00,32.7,14.4,29.63,North,0,0.0,13.1,47,0.00,,,0.00,WUHU216HW,2013-02-22 18:43:00,
2013-02-22 11:48:00,32.7,14.0,29.63,SE,135,18.3,18.3,46,0.00,,,0.00,WUHU216HW,2013-02-22 18:48:00,
2013-02-22 11:53:00,32.5,13.9,29.62,SSE,158,16.5,18.3,46,0.00,,,0.00,WUHU216HW,2013-02-22 18:53:00,
2013-02-22 11:58:00,32.7,14.0,29.62,SE,135,18.5,18.5,46,0.00,,,0.00,WUHU216HW,2013-02-22 18:58:00,
2013-02-22 12:03:00,33.0,13.8,29.62,SE,135,13.4,18.5,45,0.00,,,0.00,WUHU216HW,2013-02-22 19:03:00,
2013-02-22 12:08:00,33.4,14.2,29.62,SE,135,3.5,18.5,45,0.00,,,0.00,WUHU216HW,2013-02-22 19:08:00,
2013-02-22 12:13:00,33.8,14.5,29.62,SE,135,16.3,16.3,44,0.00,,,0.00,WUHU216HW,2013-02-22 19:13:00,
2013-02-22 12:18:00,33.9,14.1,29.62,SSE,158,14.7,16.3,44,0.00,,,0.00,WUHU216HW,2013-02-22 19:18:00,
2013-02-22 12:23:00,34.3,14.5,29.61,SE,135,19.0,19.0,44,0.00,,,0.00,WUHU216HW,2013-02-22 19:23:00,
2013-02-22 12:28:00,34.7,14.3,29.61,ESE,113,11.6,19.0,43,0.00,,,0.00,WUHU216HW,2013-02-22 19:28:00,
2013-02-22 12:34:00,35.0,14.1,29.61,SSE,158,21.9,21.9,42,0.00,,,0.00,WUHU216HW,2013-02-22 19:34:00,
2013-02-22 12:39:00,35.2,13.8,29.60,SSE,158,24.1,24.1,41,0.00,,,0.00,WUHU216HW,2013-02-22 19:39:00,
2013-02-22 12:44:00,35.2,14.3,29.60,SE,135,17.6,24.1,42,0.00,,,0.00,WUHU216HW,2013-02-22 19:44:00,
2013-02-22 12:49:00,35.4,14.5,29.60,SE,135,15.6,19.4,42,0.00,,,0.00,WUHU216HW,2013-02-22 19:49:00,
2013-02-22 12:54:00,35.2,13.8,29.60,SSE,158,21.4,24.3,41,0.00,,,0.00,WUHU216HW,2013-02-22 19:54:00,
2013-02-22 12:59:00,35.2,13.8,29.60,SSE,158,21.9,24.8,41,0.00,,,0.00,WUHU216HW,2013-02-22 19:59:00,
2013-02-22 13:04:00,34.8,13.4,29.60,SSE,158,17.0,23.0,41,0.00,,,0.00,WUHU216HW,2013-02-22 20:04:00,
2013-02-22 13:09:00,34.3,13.0,29.59,SSE,158,18.5,24.1,41,0.00,,,0.00,WUHU216HW,2013-02-22 20:09:00,
2013-02-22 13:14:00,34.3,13.0,29.59,SSE,158,19.6,24.1,41,0.00,,,0.00,WUHU216HW,2013-02-22 20:14:00,
2013-02-22 13:19:00,33.4,12.2,29.59,SE,135,20.3,25.2,41,0.00,,,0.00,WUHU216HW,2013-02-22 20:19:00,
2013-02-22 13:24:00,32.5,11.8,29.59,SSE,158,14.5,25.2,42,0.00,,,0.00,WUHU216HW,2013-02-22 20:24:00,
2013-02-22 13:29:00,31.8,11.2,29.58,South,180,15.2,20.3,42,0.00,,,0.00,WUHU216HW,2013-02-22 20:29:00,
2013-02-22 13:35:00,31.2,11.2,29.58,SSE,158,17.2,19.9,43,0.00,,,0.00,WUHU216HW,2013-02-22 20:35:00,
2013-02-22 13:40:00,30.7,11.2,29.58,SE,135,15.8,19.2,44,0.00,,,0.00,WUHU216HW,2013-02-22 20:40:00,
2013-02-22 13:45:00,30.7,11.7,29.58,SSE,158,16.7,23.2,45,0.00,,,0.00,WUHU216HW,2013-02-22 20:45:00,
2013-02-22 13:50:00,30.5,11.6,29.58,SE,135,15.2,24.8,45,0.00,,,0.00,WUHU216HW,2013-02-22 20:50:00,
2013-02-22 13:55:00,30.7,11.7,29.58,SSE,158,13.6,24.8,45,0.00,,,0.00,WUHU216HW,2013-02-22 20:55:00,
2013-02-22 14:00:00,31.2,12.2,29.58,SSE,158,14.0,18.7,45,0.00,,,0.00,WUHU216HW,2013-02-22 21:00:00,
2013-02-22 14:05:00,31.6,12.0,29.58,SSE,158,18.7,18.7,44,0.00,,,0.00,WUHU216HW,2013-02-22 21:05:00,
2013-02-22 14:10:00,31.6,12.0,29.57,SSE,158,17.6,18.7,44,0.00,,,0.00,WUHU216HW,2013-02-22 21:10:00,
2013-02-22 14:15:00,31.6,11.5,29.57,SSE,158,20.8,20.8,43,0.00,,,0.00,WUHU216HW,2013-02-22 21:15:00,
2013-02-22 14:20:00,31.8,11.7,29.57,SSE,158,16.7,21.2,43,0.00,,,0.00,WUHU216HW,2013-02-22 21:20:00,
2013-02-22 14:25:00,32.1,12.0,29.57,SSE,158,18.5,21.2,43,0.00,,,0.00,WUHU216HW,2013-02-22 21:25:00,
2013-02-22 14:30:00,31.8,11.5,29.57,ESE,113,5.1,18.5,43,0.00,,,0.00,WUHU216HW,2013-02-22 21:30:00,
2013-02-22 14:35:00,32.0,10.9,29.57,East,90,6.0,8.0,41,0.00,,,0.00,WUHU216HW,2013-02-22 21:35:00,
2013-02-22 14:40:00,32.7,11.0,29.57,ENE,68,8.2,8.2,40,0.00,,,0.00,WUHU216HW,2013-02-22 21:40:00,
2013-02-22 14:45:00,33.2,10.2,29.56,ENE,68,7.8,10.9,38,0.00,,,0.00,WUHU216HW,2013-02-22 21:45:00,
2013-02-22 14:50:00,34.1,11.0,29.57,ESE,113,8.2,14.7,38,0.00,,,0.00,WUHU216HW,2013-02-22 21:50:00,
2013-02-22 14:55:00,34.8,10.4,29.57,ESE,113,10.5,14.7,36,0.00,,,0.00,WUHU216HW,2013-02-22 21:55:00,
2013-02-22 15:00:00,35.4,10.2,29.56,East,90,8.7,14.9,35,0.00,,,0.00,WUHU216HW,2013-02-22 22:00:00,
2013-02-22 15:05:00,35.7,9.2,29.56,East,90,7.3,14.9,33,0.00,,,0.00,WUHU216HW,2013-02-22 22:05:00,
2013-02-22 15:10:00,36.1,8.9,29.56,ESE,113,7.6,15.6,32,0.00,,,0.00,WUHU216HW,2013-02-22 22:10:00,
2013-02-22 15:15:00,35.9,8.7,29.56,ESE,113,17.0,17.0,32,0.00,,,0.00,WUHU216HW,2013-02-22 22:15:00,
2013-02-22 15:20:00,35.7,8.6,29.56,ESE,113,7.1,17.0,32,0.00,,,0.00,WUHU216HW,2013-02-22 22:20:00,
2013-02-22 15:25:00,35.4,8.2,29.57,East,90,7.8,7.8,32,0.00,,,0.00,WUHU216HW,2013-02-22 22:25:00,
2013-02-22 15:30:00,35.4,8.2,29.57,ESE,113,5.8,12.3,32,0.00,,,0.00,WUHU216HW,2013-02-22 22:30:00,
2013-02-22 15:35:00,35.4,8.2,29.56,ESE,113,10.2,12.9,32,0.00,,,0.00,WUHU216HW,2013-02-22 22:35:00,
2013-02-22 15:40:00,35.4,8.2,29.56,ESE,113,7.8,12.9,32,0.00,,,0.00,WUHU216HW,2013-02-22 22:40:00,
2013-02-22 15:46:00,35.2,8.1,29.56,East,90,6.7,7.8,32,0.00,,,0.00,WUHU216HW,2013-02-22 22:46:00,
2013-02-22 15:51:00,34.8,7.8,29.56,ESE,113,14.3,14.3,32,0.00,,,0.00,WUHU216HW,2013-02-22 22:51:00,
2013-02-22 15:56:00,34.5,6.9,29.56,ESE,113,7.3,14.3,31,0.00,,,0.00,WUHU216HW,2013-02-22 22:56:00,
2013-02-22 16:01:00,34.3,6.7,29.56,ESE,113,7.3,14.0,31,0.00,,,0.00,WUHU216HW,2013-02-22 23:01:00,
2013-02-22 16:06:00,34.3,7.4,29.56,East,90,8.7,9.1,32,0.00,,,0.00,WUHU216HW,2013-02-22 23:06:00,
2013-02-22 16:11:00,34.3,7.4,29.56,ESE,113,11.4,11.4,32,0.00,,,0.00,WUHU216HW,2013-02-22 23:11:00,
2013-02-22 16:16:00,34.3,6.7,29.55,SE,135,9.6,11.4,31,0.00,,,0.00,WUHU216HW,2013-02-22 23:16:00,
2013-02-22 16:21:00,33.9,7.1,29.55,North,0,0.0,15.2,32,0.00,,,0.00,WUHU216HW,2013-02-22 23:21:00,
2013-02-22 16:26:00,33.6,6.8,29.55,SE,135,7.8,15.2,32,0.00,,,0.00,WUHU216HW,2013-02-22 23:26:00,
2013-02-22 16:31:00,33.6,6.8,29.55,ESE,113,6.2,10.5,32,0.00,,,0.00,WUHU216HW,2013-02-22 23:31:00,
2013-02-22 16:36:00,33.4,6.6,29.56,SE,135,17.8,17.8,32,0.00,,,0.00,WUHU216HW,2013-02-22 23:36:00,
2013-02-22 16:41:00,33.2,7.1,29.55,SE,135,18.7,18.7,33,0.00,,,0.00,WUHU216HW,2013-02-22 23:41:00,
2013-02-22 16:46:00,32.9,6.8,29.55,ESE,113,8.0,18.7,33,0.00,,,0.00,WUHU216HW,2013-02-22 23:46:00,
2013-02-22 16:51:00,32.7,6.6,29.55,East,90,8.9,18.7,33,0.00,,,0.00,WUHU216HW,2013-02-22 23:51:00,
2013-02-22 16:56:00,32.5,6.4,29.55,East,90,14.7,14.7,33,0.00,,,0.00,WUHU216HW,2013-02-22 23:56:00,
2013-02-22 17:01:00,32.3,6.3,29.55,ESE,113,4.6,14.7,33,0.00,,,0.00,WUHU216HW,2013-02-23 00:01:00,
2013-02-22 17:06:00,32.0,6.6,29.55,ESE,113,8.2,14.7,34,0.00,,,0.00,WUHU216HW,2013-02-23 00:06:00,
2013-02-22 17:11:00,31.8,7.0,29.55,ESE,113,13.8,20.8,35,0.00,,,0.00,WUHU216HW,2013-02-23 00:11:00,
2013-02-22 17:16:00,31.6,6.9,29.55,ESE,113,7.8,20.8,35,0.00,,,0.00,WUHU216HW,2013-02-23 00:16:00,
2013-02-22 17:21:00,30.9,6.2,29.55,SE,135,12.9,17.4,35,0.00,,,0.00,WUHU216HW,2013-02-23 00:21:00,
2013-02-22 17:26:00,30.7,6.7,29.55,SE,135,12.3,17.4,36,0.00,,,0.00,WUHU216HW,2013-02-23 00:26:00,
2013-02-22 17:31:00,29.8,5.9,29.55,SE,135,12.5,16.1,36,0.00,,,0.00,WUHU216HW,2013-02-23 00:31:00,
2013-02-22 17:36:00,29.1,5.9,29.54,SE,135,11.4,14.0,37,0.00,,,0.00,WUHU216HW,2013-02-23 00:36:00,
2013-02-22 17:41:00,28.5,6.0,29.55,ESE,113,11.6,13.4,38,0.00,,,0.00,WUHU216HW,2013-02-23 00:41:00,
2013-02-22 17:47:00,28.0,6.2,29.55,ESE,113,11.1,13.4,39,0.00,,,0.00,WUHU216HW,2013-02-23 00:47:00,
2013-02-22 17:52:00,27.5,6.3,29.54,East,90,9.6,13.1,40,0.00,,,0.00,WUHU216HW,2013-02-23 00:52:00,
2013-02-22 17:57:00,27.1,6.5,29.54,SE,135,5.5,11.1,41,0.00,,,0.00,WUHU216HW,2013-02-23 00:57:00,
2013-02-22 18:02:00,26.4,6.3,29.54,ESE,113,8.2,11.1,42,0.00,,,0.00,WUHU216HW,2013-02-23 01:02:00,
2013-02-22 18:07:00,26.0,6.5,29.54,SE,135,7.6,11.6,43,0.00,,,0.00,WUHU216HW,2013-02-23 01:07:00,
2013-02-22 18:12:00,25.7,6.1,29.54,SE,135,8.5,11.6,43,0.00,,,0.00,WUHU216HW,2013-02-23 01:12:00,
2013-02-22 18:17:00,25.5,6.5,29.54,SE,135,10.9,10.9,44,0.00,,,0.00,WUHU216HW,2013-02-23 01:17:00,
2013-02-22 18:22:00,25.3,6.8,29.54,SE,135,8.5,15.6,45,0.00,,,0.00,WUHU216HW,2013-02-23 01:22:00,
2013-02-22 18:27:00,25.3,7.3,29.54,SE,135,6.7,15.6,46,0.00,,,0.00,WUHU216HW,2013-02-23 01:27:00,
2013-02-22 18:32:00,25.1,7.1,29.54,SE,135,7.6,12.0,46,0.00,,,0.00,WUHU216HW,2013-02-23 01:32:00,
2013-02-22 18:37:00,24.9,7.4,29.54,SE,135,6.9,8.7,47,0.00,,,0.00,WUHU216HW,2013-02-23 01:37:00,
2013-02-22 18:43:00,24.6,7.1,29.53,SE,135,8.7,8.7,47,0.00,,,0.00,WUHU216HW,2013-02-23 01:43:00,
2013-02-22 18:48:00,24.6,7.6,29.53,ESE,113,6.0,12.0,48,0.00,,,0.00,WUHU216HW,2013-02-23 01:48:00,
2013-02-22 18:53:00,24.4,7.4,29.53,SE,135,6.4,12.0,48,0.00,,,0.00,WUHU216HW,2013-02-23 01:53:00,
2013-02-22 18:58:00,24.4,7.9,29.53,SE,135,9.1,9.1,49,0.00,,,0.00,WUHU216HW,2013-02-23 01:58:00,
2013-02-22 19:03:00,24.2,7.8,29.53,SE,135,9.8,9.8,49,0.00,,,0.00,WUHU216HW,2013-02-23 02:03:00,
2013-02-22 19:08:00,24.0,7.6,29.54,SE,135,8.7,9.8,49,0.00,,,0.00,WUHU216HW,2013-02-23 02:08:00,
2013-02-22 19:13:00,24.0,8.1,29.53,SE,135,6.4,9.3,50,0.00,,,0.00,WUHU216HW,2013-02-23 02:13:00,
2013-02-22 19:18:00,24.0,8.1,29.53,ESE,113,5.1,8.2,50,0.00,,,0.00,WUHU216HW,2013-02-23 02:18:00,
2013-02-22 19:23:00,24.0,8.1,29.53,SE,135,12.7,12.7,50,0.00,,,0.00,WUHU216HW,2013-02-23 02:23:00,
2013-02-22 19:28:00,24.0,8.1,29.53,SE,135,12.0,12.7,50,0.00,,,0.00,WUHU216HW,2013-02-23 02:28:00,
2013-02-22 19:33:00,24.0,8.5,29.52,ESE,113,10.0,12.7,51,0.00,,,0.00,WUHU216HW,2013-02-23 02:33:00,
2013-02-22 19:38:00,24.0,8.5,29.52,ESE,113,5.8,12.0,51,0.00,,,0.00,WUHU216HW,2013-02-23 02:38:00,
2013-02-22 19:43:00,24.0,8.5,29.52,SE,135,10.9,10.9,51,0.00,,,0.00,WUHU216HW,2013-02-23 02:43:00,
2013-02-22 19:48:00,24.0,8.5,29.52,SE,135,9.8,10.9,51,0.00,,,0.00,WUHU216HW,2013-02-23 02:48:00,
2013-02-22 19:53:00,24.0,8.9,29.52,SSE,158,13.6,15.8,52,0.00,,,0.00,WUHU216HW,2013-02-23 02:53:00,
2013-02-22 19:58:00,24.4,8.8,29.52,SE,135,13.8,15.8,51,0.00,,,0.00,WUHU216HW,2013-02-23 02:58:00,
2013-02-22 20:03:00,24.6,9.0,29.51,SE,135,11.8,15.4,51,0.00,,,0.00,WUHU216HW,2013-02-23 03:03:00,
2013-02-22 20:08:00,24.6,9.0,29.51,SE,135,19.9,19.9,51,0.00,,,0.00,WUHU216HW,2013-02-23 03:08:00,
2013-02-22 20:13:00,24.8,9.1,29.51,SE,135,13.8,19.9,51,0.00,,,0.00,WUHU216HW,2013-02-23 03:13:00,
2013-02-22 20:18:00,24.9,9.3,29.51,SE,135,22.1,22.1,51,0.00,,,0.00,WUHU216HW,2013-02-23 03:18:00,
2013-02-22 20:23:00,24.9,9.3,29.51,SE,135,14.7,22.1,51,0.00,,,0.00,WUHU216HW,2013-02-23 03:23:00,
2013-02-22 20:29:00,24.9,8.9,29.51,SE,135,16.7,22.1,50,0.00,,,0.00,WUHU216HW,2013-02-23 03:29:00,
2013-02-22 20:34:00,24.9,8.9,29.51,SE,135,19.0,19.0,50,0.00,,,0.00,WUHU216HW,2013-02-23 03:34:00,
2013-02-22 20:39:00,24.9,9.3,29.51,SSE,158,15.6,21.4,51,0.00,,,0.00,WUHU216HW,2013-02-23 03:39:00,
2013-02-22 20:44:00,24.9,9.3,29.50,SE,135,16.5,21.4,51,0.00,,,0.00,WUHU216HW,2013-02-23 03:44:00,
2013-02-22 20:49:00,24.9,9.3,29.50,SE,135,18.5,18.5,51,0.00,,,0.00,WUHU216HW,2013-02-23 03:49:00,
2013-02-22 20:54:00,24.9,9.3,29.50,SE,135,19.6,19.6,51,0.00,,,0.00,WUHU216HW,2013-02-23 03:54:00,
2013-02-22 20:59:00,24.9,9.3,29.50,SE,135,16.1,19.6,51,0.00,,,0.00,WUHU216HW,2013-02-23 03:59:00,
2013-02-22 21:04:00,24.9,9.3,29.50,SSE,158,21.6,21.6,51,0.00,,,0.00,WUHU216HW,2013-02-23 04:04:00,
2013-02-22 21:09:00,24.9,9.3,29.50,SSE,158,19.2,21.6,51,0.00,,,0.00,WUHU216HW,2013-02-23 04:09:00,
2013-02-22 21:14:00,24.9,9.3,29.50,SE,135,18.1,21.6,51,0.00,,,0.00,WUHU216HW,2013-02-23 04:14:00,
2013-02-22 21:19:00,24.9,9.7,29.51,SE,135,22.8,22.8,52,0.00,,,0.00,WUHU216HW,2013-02-23 04:19:00,
2013-02-22 21:24:00,24.6,9.4,29.50,SSE,158,17.0,22.8,52,0.00,,,0.00,WUHU216HW,2013-02-23 04:24:00,
2013-02-22 21:29:00,24.6,9.4,29.51,SE,135,15.4,19.0,52,0.00,,,0.00,WUHU216HW,2013-02-23 04:29:00,
2013-02-22 21:34:00,24.6,9.8,29.50,SE,135,15.6,17.0,53,0.00,,,0.00,WUHU216HW,2013-02-23 04:34:00,
2013-02-22 21:39:00,24.6,9.8,29.50,SSE,158,17.0,18.5,53,0.00,,,0.00,WUHU216HW,2013-02-23 04:39:00,
2013-02-22 21:44:00,24.6,9.8,29.50,SSE,158,20.5,23.2,53,0.00,,,0.00,WUHU216HW,2013-02-23 04:44:00,
2013-02-22 21:50:00,24.6,9.8,29.50,SSE,158,18.1,23.2,53,0.00,,,0.00,WUHU216HW,2013-02-23 04:50:00,
2013-02-22 21:55:00,24.6,9.8,29.50,SE,135,16.3,20.5,53,0.00,,,0.00,WUHU216HW,2013-02-23 04:55:00,
2013-02-22 22:00:00,24.6,9.8,29.49,SE,135,16.1,20.5,53,0.00,,,0.00,WUHU216HW,2013-02-23 05:00:00,
2013-02-22 22:02:00,24.6,9.8,29.49,SSE,158,13.4,17.8,53,0.00,,,0.00,WUHU216HW,2013-02-23 05:02:00,
2013-02-22 22:07:00,24.6,9.8,29.49,SSE,158,13.6,17.8,53,0.00,,,0.00,WUHU216HW,2013-02-23 05:07:00,
2013-02-22 22:12:00,24.4,9.6,29.49,SSE,158,17.2,17.2,53,0.00,,,0.00,WUHU216HW,2013-02-23 05:12:00,
2013-02-22 22:17:00,24.4,9.6,29.49,SE,135,10.9,17.2,53,0.00,,,0.00,WUHU216HW,2013-02-23 05:17:00,
2013-02-22 22:23:00,24.4,9.6,29.49,SE,135,17.8,20.5,53,0.00,,,0.00,WUHU216HW,2013-02-23 05:23:00,
2013-02-22 22:28:00,24.4,9.6,29.49,SE,135,19.6,20.5,53,0.00,,,0.00,WUHU216HW,2013-02-23 05:28:00,
2013-02-22 22:33:00,24.4,9.6,29.49,SE,135,18.1,19.6,53,0.00,,,0.00,WUHU216HW,2013-02-23 05:33:00,
2013-02-22 22:38:00,24.4,9.6,29.49,SSE,158,21.9,24.1,53,0.00,,,0.00,WUHU216HW,2013-02-23 05:38:00,
2013-02-22 22:43:00,24.0,9.7,29.49,SSE,158,19.9,24.1,54,0.00,,,0.00,WUHU216HW,2013-02-23 05:43:00,
2013-02-22 22:48:00,24.0,9.7,29.49,SE,135,25.5,25.5,54,0.00,,,0.00,WUHU216HW,2013-02-23 05:48:00,
2013-02-22 22:52:00,24.0,9.7,29.49,SE,135,16.3,25.5,54,0.00,,,0.00,WUHU216HW,2013-02-23 05:52:00,
2013-02-22 22:58:00,24.0,9.7,29.49,SSE,158,21.0,25.2,54,0.00,,,0.00,WUHU216HW,2013-02-23 05:58:00,
2013-02-22 23:03:00,24.0,10.1,29.49,SSE,158,19.0,32.2,55,0.00,,,0.00,WUHU216HW,2013-02-23 06:03:00,
2013-02-22 23:08:00,23.9,9.9,29.49,SE,135,16.5,32.2,55,0.00,,,0.00,WUHU216HW,2013-02-23 06:08:00,
2013-02-22 23:13:00,23.7,9.8,29.48,SE,135,20.5,20.5,55,0.00,,,0.00,WUHU216HW,2013-02-23 06:13:00,
2013-02-22 23:18:00,23.5,9.6,29.48,SSE,158,18.3,20.5,55,0.00,,,0.00,WUHU216HW,2013-02-23 06:18:00,
2013-02-22 23:23:00,23.5,9.6,29.48,SE,135,14.9,22.8,55,0.00,,,0.00,WUHU216HW,2013-02-23 06:23:00,
2013-02-22 23:28:00,23.5,9.6,29.48,SSE,158,19.2,22.8,55,0.00,,,0.00,WUHU216HW,2013-02-23 06:28:00,
2013-02-22 23:33:00,23.5,9.6,29.48,SE,135,17.6,19.4,55,0.00,,,0.00,WUHU216HW,2013-02-23 06:33:00,
2013-02-22 23:38:00,23.5,10.0,29.48,SE,135,22.1,26.1,56,0.00,,,0.00,WUHU216HW,2013-02-23 06:38:00,
2013-02-22 23:43:00,23.5,9.6,29.48,SE,135,22.5,26.8,55,0.00,,,0.00,WUHU216HW,2013-02-23 06:43:00,
2013-02-22 23:48:00,23.5,9.6,29.48,SSE,158,18.3,26.8,55,0.00,,,0.00,WUHU216HW,2013-02-23 06:48:00,
2013-02-22 23:53:00,23.5,10.0,29.48,SE,135,22.1,22.1,56,0.00,,,0.00,WUHU216HW,2013-02-23 06:53:00,
2013-02-22 23:58:00,23.3,9.8,29.48,SSE,158,22.1,22.1,56,0.00,,,0.00,WUHU216HW,2013-02-23 06:58:00,